Tiempo atmosférico en la estación meteorológica de Linares, Jaén (515 m.)



Fecha
DESCASC
Temp. máxima en grados centígrados (hora)
DESCASC
Temp. mínima en grados centígrados (hora)
DESCASC
Temp. media en grados centígrados
DESCASC
Racha de viento máxima en m/sg (hora)
DESCASC
Velocidad máxima media en intervalos de 10 minutos(hora)
DESCASC
Precipitaciones diarias en mm
DESCASC
Precipitaciones de 00:00 a 06:00 en mm
DESCASC
Precipitaciones de 06:00 a 12:00 en mm
DESCASC
Precipitaciones de 12:00 a 18:00 en mm
DESCASC
Precipitaciones de 18:00 a 24:00 en mm
DESCASC
06-07-2020 39.7 (19:10) 23.9 (07:20) 31.8 6.39 (00:30) 3.06 (01:10) 0 0 0 0 0
05-07-2020 38.4 (19:10) 22.4 (06:00) 30.4 7.78 (18:10) 3.06 (22:30) 0 0 0 0 0
04-07-2020 37.6 (19:30) 19.9 (07:10) 28.7 5 (15:10) 2.5 (15:20) 0 0 0 0 0
03-07-2020 35.3 (18:40) 20.4 (07:10) 27.8 6.94 (17:20) 2.78 (13:40) 0 0 0 0 0
02-07-2020 35.4 (18:50) 20.8 (00:00) 28.1 9.17 (15:00) 3.61 (14:10) 0 0 0 0 0
01-07-2020 35.9 (19:30) 19.5 (00:00) 27.7 10 (03:20) 3.89 (03:10) 0 0 0 0 0
30-06-2020 37.2 (19:00) 23.2 (00:00) 30.2 9.72 (17:10) 4.44 (18:00) 0 0 0 0 0
29-06-2020 38.7 (18:20) 22.8 (00:00) 30.8 7.22 (18:30) 3.33 (18:40) 0 0 0 0 0
28-06-2020 37.4 (19:00) 20.8 (00:00) 29.1 5.83 (18:10) 2.5 (15:40) 0 0 0 0 0
27-06-2020 34.1 (18:50) 17.4 (00:00) 25.7 5.83 (19:10) 2.78 (16:40) 0 0 0 0 0
26-06-2020 31.5 (18:40) 18.8 (00:00) 25.1 9.17 (16:00) 3.89 (20:30) 0 0 0 0 0
25-06-2020 35.4 (17:20) 21.7 (00:00) 28.6 9.17 (20:20) 4.72 (20:20) 0 0 0 0 0
24-06-2020 37.9 (16:30) 22.2 (00:00) 30.1 6.94 (16:20) 2.78 (16:40) 0 0 0 0 0
23-06-2020 39.1 (19:30) 23.4 (00:00) 31.2 7.5 (11:40) 2.22 (14:50) 0 0 0 0 0
22-06-2020 38.7 (18:50) 23.4 (00:00) 31.1 6.11 (17:10) 2.78 (17:10) 0 0 0 0 0
21-06-2020 36.6 (19:40) 20.1 (00:00) 28.3 5.28 (18:30) 2.22 (17:20) 0 0 0 0 0
20-06-2020 34.7 (19:30) 17.8 (00:00) 26.3 8.06 (16:10) 3.33 (16:30) 0 0 0 0 0
19-06-2020 31.7 (18:30) 15.7 (00:00) 23.7 7.5 (19:50) 3.61 (02:30) 0 0 0 0 0
18-06-2020 30.9 (18:30) 16.3 (00:00) 23.6 10 (23:50) 4.17 (23:50) 0 0 0 0 0
17-06-2020 29.1 (18:30) 16.5 (00:00) 22.8 9.44 (15:30) 4.44 (15:10) 0 0 0 0 0
16-06-2020 28.3 (15:50) 15.9 (00:00) 22.1 10 (15:30) 4.17 (19:10) 0 0 0 0 0
15-06-2020 29.2 (18:30) 14 (00:00) 21.6 9.72 (00:30) 4.17 (00:20) 0 0 0 0 0
14-06-2020 28.7 (19:00) 15 (00:00) 21.9 10.28 (22:50) 4.72 (22:50) 0 0 0 0 0
13-06-2020 24.7 (18:50) 12.5 (00:00) 18.6 10 (00:20) 5 (00:20) 0 0 0 0 0
12-06-2020 23.2 (18:30) 12.7 (00:00) 18 11.11 (00:40) 5.83 (00:50) 0.4 0 0.4 0 0
11-06-2020 25.1 (18:50) 14.8 (00:00) 20 13.61 (22:20) 6.39 (21:00) 0 0 0 0 0

Gráficas

Temp. máximas Temp. mínimas Temp. medias Precipitaciones Rachas de viento máximas Velocidades máximas media en intervalos de 10 minutos

Datos horarios

Fecha y hora oficial Temperatura (ºC) Velocidad del viento (km/h) Dirección del viento Racha (km/h) Dirección de racha Precipitación (mm) Presión (hPa) Tendencia (hPa) Humedad (%)
2020-07-10 23:00:00 30.5 3 Oeste 9 Oeste 0 -- -- 24
2020-07-10 22:00:00 31.8 0 Calma 4 Oeste 0 -- -- 22
2020-07-10 21:00:00 34.9 3 Sudoeste 9 Oeste 0 -- -- 19
2020-07-10 20:00:00 36.4 4 Sur 12 Sur 0 -- -- 18
2020-07-10 19:00:00 37 4 Oeste 15 Sur 0 -- -- 18
2020-07-10 18:00:00 36 5 Sudoeste 19 Sudeste 0 -- -- 18
2020-07-10 17:00:00 35.2 6 Noroeste 18 Noroeste 0 -- -- 19
2020-07-10 16:00:00 34.8 9 Noroeste 17 Noroeste 0 -- -- 21
2020-07-10 15:00:00 33.4 6 Noroeste 14 Noroeste 0 -- -- 27
2020-07-10 14:00:00 31.6 4 Sudoeste 15 Oeste 0 -- -- 31
2020-07-10 13:00:00 29.7 5 Oeste 15 Oeste 0 -- -- 35
2020-07-10 12:00:00 28.1 6 Oeste 12 Oeste 0 -- -- 39
2020-07-10 11:00:00 26 4 Oeste 11 Oeste 0 -- -- 44
2020-07-10 10:00:00 23.4 4 Noroeste 8 Oeste 0 -- -- 52
2020-07-10 09:00:00 22 0 Calma 6 Sur 0 -- -- 59
2020-07-10 08:00:00 20.5 2 Sudoeste 6 Oeste 0 -- -- 64
2020-07-10 07:00:00 20.8 2 Sudoeste 11 Oeste 0 -- -- 61
2020-07-10 06:00:00 21.5 6 Oeste 13 Oeste 0 -- -- 59
2020-07-10 05:00:00 22.2 5 Sudoeste 15 Oeste 0 -- -- 56
2020-07-10 04:00:00 23 3 Sur 15 Oeste 0 -- -- 48
2020-07-10 03:00:00 24.2 6 Sudoeste 16 Oeste 0 -- -- 43
2020-07-10 02:00:00 25.3 4 Sudoeste 12 Sudoeste 0 -- -- 34
2020-07-10 01:00:00 26.5 5 Sur 13 Sudoeste 0 -- -- 27
2020-07-10 00:00:00 27.7 6 Oeste 16 Noroeste 0 -- -- 26
2020-07-09 23:00:00 29 5 Sudoeste 15 Sudoeste 0 -- -- 25
2020-07-09 22:00:00 29.6 5 Sur 18 Oeste 0 -- -- 23
2020-07-09 21:00:00 32.5 8 Oeste 23 Oeste 0 -- -- 19
2020-07-09 20:00:00 34.6 11 Oeste 27 Oeste 0 -- -- 20
2020-07-09 19:00:00 35.4 12 Oeste 29 Oeste 0 -- -- 16
2020-07-09 18:00:00 35.5 10 Oeste 24 Oeste 0 -- -- 17
2020-07-09 17:00:00 35.1 8 Oeste 24 Noroeste 0 -- -- 16
2020-07-09 16:00:00 34.9 6 Oeste 19 Oeste 0 -- -- 20
2020-07-09 15:00:00 33.4 6 Oeste 17 Noroeste 0 -- -- 25
2020-07-09 14:00:00 31.7 6 Nordeste 15 Noroeste 0 -- -- 28
2020-07-09 13:00:00 30.6 6 Sudoeste 14 Noroeste 0 -- -- 30
2020-07-09 12:00:00 28.6 4 Sudoeste 15 Oeste 0 -- -- 33
2020-07-09 11:00:00 26.5 6 Oeste 12 Noroeste 0 -- -- 36
2020-07-09 10:00:00 23.9 4 Noroeste 7 Noroeste 0 -- -- 40
2020-07-09 09:00:00 22.3 2 Sudeste 6 Sudeste 0.8 -- -- 43
2020-07-09 08:00:00 20.8 0 Calma 6 Sudoeste 0 -- -- 47
2020-07-09 07:00:00 20.7 0 Calma 4 Sur 0 -- -- 46
2020-07-09 06:00:00 21.4 2 Sur 10 Sur 0 -- -- 42
2020-07-09 05:00:00 21.8 5 Sur 9 Sudoeste 0 -- -- 39
2020-07-09 04:00:00 22.8 2 Sur 9 Noroeste 0 -- -- 37
2020-07-09 03:00:00 24.4 4 Oeste 19 Oeste 0 -- -- 37
2020-07-09 02:00:00 25.1 10 Oeste 27 Oeste 0 -- -- 32
2020-07-09 01:00:00 26.5 13 Oeste 30 Oeste 0 -- -- 33
2020-07-09 00:00:00 28.1 15 Oeste 35 Oeste 0 -- -- 30
2020-07-08 23:00:00 30 14 Sudoeste 30 Oeste 0 -- -- 25
2020-07-08 22:00:00 32.2 8 Sudoeste 24 Oeste 0 -- -- 24
2020-07-08 21:00:00 34 5 Sudoeste 16 Oeste 0 -- -- 21
2020-07-08 20:00:00 34 8 Sudoeste 23 Oeste 0 -- -- 20
2020-07-08 19:00:00 35.4 15 Oeste 29 Oeste 0 -- -- 19
2020-07-08 18:00:00 36 14 Oeste 35 Oeste 0 -- -- 18
2020-07-08 17:00:00 37.2 15 Oeste 35 Oeste 0 -- -- 19
2020-07-08 16:00:00 37.3 18 Oeste 46 Oeste 0 -- -- 19
2020-07-08 15:00:00 37 11 Oeste 28 Oeste 0 -- -- 21
2020-07-08 14:00:00 37.7 11 Oeste 23 Noroeste 0 -- -- 20
2020-07-08 13:00:00 38.3 4 Sudoeste 16 Sur 0 -- -- 18
2020-07-08 12:00:00 37.1 5 Sudeste 22 Sudeste 0 -- -- 20
2020-07-08 11:00:00 33.4 5 Este 18 Sudeste 0 -- -- 24
2020-07-08 10:00:00 30.6 4 Este 10 Nordeste 0 -- -- 27
2020-07-08 09:00:00 28.5 5 Sudeste 19 Sudeste 0 -- -- 29
2020-07-08 08:00:00 27.4 10 Sudeste 19 Sudeste 0 -- -- 30
2020-07-08 07:00:00 26.9 10 Sudeste 22 Sudeste 0 -- -- 33
2020-07-08 06:00:00 28.2 3 Noroeste 8 Sudeste 0 -- -- 28
2020-07-08 05:00:00 28.7 3 Sur 6 Sur 0 -- -- 27
2020-07-08 04:00:00 29.5 3 Sur 8 Sur 0 -- -- 26
2020-07-08 03:00:00 30.4 4 Sur 10 Sur 0 -- -- 25
2020-07-08 02:00:00 30.9 2 Sur 6 Oeste 0 -- -- 24
2020-07-08 01:00:00 31.2 0 Calma 8 Oeste 0 -- -- 22
2020-07-08 00:00:00 32.7 5 Oeste 15 Oeste 0 -- -- 21
2020-07-07 23:00:00 34.7 8 Oeste 17 Oeste 0 -- -- 19
2020-07-07 22:00:00 35.4 5 Sudoeste 14 Oeste 0 -- -- 18
2020-07-07 21:00:00 37.5 6 Sudoeste 26 Oeste 0 -- -- 16
2020-07-07 20:00:00 39.4 13 Oeste 26 Oeste 0 -- -- 16
2020-07-07 19:00:00 40.5 10 Oeste 25 Oeste 0 -- -- 16
2020-07-07 18:00:00 40 12 Oeste 26 Oeste 0 -- -- 16
2020-07-07 17:00:00 39.9 8 Sudoeste 26 Oeste 0 -- -- 15
2020-07-07 16:00:00 39.4 10 Oeste 27 Oeste 0 -- -- 15
2020-07-07 15:00:00 38.2 6 Sudoeste 19 Oeste 0 -- -- 17
2020-07-07 14:00:00 36.3 6 Oeste 15 Oeste 0 -- -- 21
2020-07-07 13:00:00 35 6 Sudoeste 14 Sur 0 -- -- 23
2020-07-07 12:00:00 32.7 5 Sudoeste 13 Oeste 0 -- -- 27
2020-07-07 11:00:00 30.3 4 Oeste 14 Oeste 0 -- -- 30
2020-07-07 10:00:00 28 4 Oeste 8 Oeste 0 -- -- 34
2020-07-07 09:00:00 26.5 2 Sudoeste 9 Oeste 0 -- -- 35
2020-07-07 08:00:00 25.5 4 Oeste 14 Oeste 0 -- -- 37
2020-07-07 07:00:00 25.9 7 Sudoeste 16 Oeste 0 -- -- 36
2020-07-07 06:00:00 26.3 6 Sudoeste 17 Oeste 0 -- -- 35
2020-07-07 05:00:00 27.1 9 Oeste 23 Oeste 0 -- -- 35
2020-07-07 04:00:00 27.9 8 Sudoeste 25 Sudoeste 0 -- -- 35
2020-07-07 03:00:00 28.8 8 Sudoeste 32 Noroeste 0 -- -- 33
2020-07-07 02:00:00 30.3 11 Sudoeste 27 Oeste 0 -- -- 28
2020-07-07 01:00:00 31.6 8 Oeste 16 Oeste 0 -- -- 24
2020-07-07 00:00:00 32.8 8 Oeste 20 Oeste 0 -- -- 22
2020-07-06 23:00:00 34.1 9 Oeste 22 Oeste 0 -- -- 21
2020-07-06 22:00:00 34.4 3 Sudoeste 8 Oeste 0 -- -- 21
2020-07-06 21:00:00 37.5 3 Sur 13 Sur 0 -- -- 18
2020-07-06 20:00:00 39.1 5 Sudoeste 21 Oeste 0 -- -- 17
2020-07-06 19:00:00 39.6 7 Oeste 17 Oeste 0 -- -- 16
2020-07-06 18:00:00 38.8 7 Noroeste 17 Noroeste 0 -- -- 16
2020-07-06 17:00:00 38.6 5 Oeste 21 Sur 0 -- -- 17
2020-07-06 16:00:00 38.3 5 Sudoeste 17 Oeste 0 -- -- 18
2020-07-06 15:00:00 36.3 6 Oeste 17 Noroeste 0 -- -- 21
2020-07-06 14:00:00 34.5 5 Oeste 18 Oeste 0 -- -- 24
2020-07-06 13:00:00 32.7 8 Oeste 21 Oeste 0 -- -- 26
2020-07-06 12:00:00 30.9 5 Sudoeste 14 Oeste 0 -- -- 28
2020-07-06 11:00:00 29 6 Oeste 13 Oeste 0 -- -- 31
2020-07-06 10:00:00 26.5 3 Oeste 6 Oeste 0 -- -- 38
2020-07-06 09:00:00 24.9 0 Calma 5 Oeste 0 -- -- 37
2020-07-06 08:00:00 24.2 0 Calma 7 Sudoeste 0 -- -- 38
2020-07-06 07:00:00 24.2 0 Calma 8 Sudoeste 0 -- -- 36
2020-07-06 06:00:00 25.2 2 Sur 15 Oeste 0 -- -- 33
2020-07-06 05:00:00 26.5 9 Oeste 16 Sudoeste 0 -- -- 31
2020-07-06 04:00:00 27.3 6 Oeste 15 Oeste 0 -- -- 27
2020-07-06 03:00:00 27.9 5 Oeste 13 Oeste 0 -- -- 27
2020-07-06 02:00:00 28.9 5 Sudoeste 21 Oeste 0 -- -- 25
2020-07-06 01:00:00 29.8 10 Oeste 23 Oeste 0 -- -- 24
2020-07-06 00:00:00 30.6 8 Sudoeste 20 Sudoeste 0 -- -- 25
2020-07-05 23:00:00 31.9 10 Sudoeste 21 Oeste 0 -- -- 26
2020-07-05 22:00:00 33.4 9 Oeste 19 Oeste 0 -- -- 24
2020-07-05 21:00:00 36.2 8 Sudoeste 18 Noroeste 0 -- -- 20
2020-07-05 20:00:00 38.1 5 Noroeste 18 Oeste 0 -- -- 18
2020-07-05 19:00:00 38.1 7 Noroeste 28 Noroeste 0 -- -- 19
2020-07-05 18:00:00 37 6 Noroeste 21 Oeste 0 -- -- 19
2020-07-05 17:00:00 37.7 4 Sur 21 Oeste 0 -- -- 18
2020-07-05 16:00:00 37.2 7 Oeste 21 Oeste 0 -- -- 19
2020-07-05 15:00:00 35.7 8 Oeste 15 Noroeste 0 -- -- 21
2020-07-05 14:00:00 35.4 5 Sur 16 Sur 0 -- -- 23
2020-07-05 13:00:00 33.6 3 Sur 15 Oeste 0 -- -- 26
2020-07-05 12:00:00 31.8 5 Sur 11 Sur 0 -- -- 29
2020-07-05 11:00:00 29.6 4 Sudeste 11 Sudeste 0 -- -- 33
2020-07-05 10:00:00 26.5 2 Este 9 Sudeste 0 -- -- 39
2020-07-05 09:00:00 24.8 4 Sudeste 9 Sudeste 0 -- -- 42
2020-07-05 08:00:00 22.9 4 Sudeste 7 Sudeste 0 -- -- 45
2020-07-05 07:00:00 22.8 4 Sur 8 Sur 0 -- -- 42
2020-07-05 06:00:00 22.4 3 Sur 7 Sudeste 0 -- -- 44
2020-07-05 05:00:00 23.8 2 Sudeste 13 Oeste 0 -- -- 42
2020-07-05 04:00:00 25.4 7 Oeste 17 Oeste 0 -- -- 35
2020-07-05 03:00:00 26.1 5 Sudoeste 13 Sur 0 -- -- 34
2020-07-05 02:00:00 27.8 4 Sur 13 Sur 0 -- -- 28
2020-07-05 01:00:00 28.3 4 Sur 9 Sudeste 0 -- -- 23
2020-07-05 00:00:00 29.8 5 Noroeste 8 Oeste 0 -- -- 20
2020-07-04 23:00:00 30.3 3 Oeste 12 Oeste 0 -- -- 21
2020-07-04 22:00:00 31.9 2 Sur 7 Oeste 0 -- -- 19
2020-07-04 21:00:00 35.7 4 Sudoeste 13 Oeste 0 -- -- 17
2020-07-04 20:00:00 37.4 7 Oeste 15 Oeste 0 -- -- 15
2020-07-04 19:00:00 36.7 4 Sur 16 Sur 0 -- -- 15
2020-07-04 18:00:00 36.7 5 Noroeste 17 Oeste 0 -- -- 14
2020-07-04 17:00:00 35.7 8 Norte 17 Norte 0 -- -- 14
2020-07-04 16:00:00 34.8 8 Norte 18 Oeste 0 -- -- 17
2020-07-04 15:00:00 34.2 6 Norte 15 Noroeste 0 -- -- 17
2020-07-04 14:00:00 32.9 6 Oeste 15 Oeste 0 -- -- 21
2020-07-04 13:00:00 30.5 6 Noroeste 14 Oeste 0 -- -- 25
2020-07-04 12:00:00 29.1 5 Sudoeste 15 Oeste 0 -- -- 29
2020-07-04 11:00:00 26.8 5 Oeste 10 Oeste 0 -- -- 32
2020-07-04 10:00:00 24.1 4 Noroeste 8 Sur 0 -- -- 36
2020-07-04 09:00:00 22.2 4 Sudeste 8 Sudeste 0 -- -- 38
2020-07-04 08:00:00 20.5 0 Calma 5 Sudoeste 0 -- -- 40
2020-07-04 07:00:00 20.3 0 Calma 6 Noroeste 0 -- -- 40
2020-07-04 06:00:00 21.6 3 Sur 11 Sur 0 -- -- 37
2020-07-04 05:00:00 22.5 4 Sudoeste 11 Sudoeste 0 -- -- 35
2020-07-04 04:00:00 23.1 3 Sudoeste 11 Oeste 0 -- -- 30
2020-07-04 03:00:00 24.6 5 Oeste 18 Sur 0 -- -- 27
2020-07-04 02:00:00 25.4 6 Sur 10 Sudoeste 0 -- -- 23
2020-07-04 01:00:00 25.7 0 Calma 9 Oeste 0 -- -- 22
2020-07-04 00:00:00 27.7 4 Oeste 14 Oeste 0 -- -- 20
2020-07-03 23:00:00 28.9 6 Sudoeste 14 Oeste 0 -- -- 19
2020-07-03 22:00:00 30.3 3 Sudoeste 17 Oeste 0 -- -- 18
2020-07-03 21:00:00 32.9 5 Sudoeste 16 Oeste 0 -- -- 16
2020-07-03 20:00:00 34.6 6 Sudoeste 23 Oeste 0 -- -- 16
2020-07-03 19:00:00 34.8 6 Sudoeste 21 Oeste 0 -- -- 15
2020-07-03 18:00:00 34.1 7 Sudoeste 25 Sudoeste 0 -- -- 15
2020-07-03 17:00:00 34 10 Oeste 24 Oeste 0 -- -- 16
2020-07-03 16:00:00 33.9 10 Oeste 21 Oeste 0 -- -- 16
2020-07-03 15:00:00 32.4 6 Sudoeste 20 Oeste 0 -- -- 19
2020-07-03 14:00:00 30.7 5 Oeste 20 Oeste 0 -- -- 23
2020-07-03 13:00:00 29.5 7 Oeste 22 Oeste 0 -- -- 27
2020-07-03 12:00:00 28 7 Oeste 16 Noroeste 0 -- -- 29
2020-07-03 11:00:00 25.9 5 Oeste 12 Oeste 0 -- -- 33
2020-07-03 10:00:00 23.4 3 Sudoeste 9 Oeste 0 -- -- 38
2020-07-03 09:00:00 21.9 2 Oeste 5 Oeste 0 -- -- 41
2020-07-03 08:00:00 20.7 0 Calma 5 Oeste 0 -- -- 42
2020-07-03 07:00:00 20.6 0 Calma 7 Oeste 0 -- -- 42
2020-07-03 06:00:00 21.4 0 Calma 13 Oeste 0 -- -- 39
2020-07-03 05:00:00 22.9 6 Oeste 11 Oeste 0 -- -- 36
2020-07-03 04:00:00 24 7 Oeste 12 Oeste 0 -- -- 34
2020-07-03 03:00:00 24.8 4 Noroeste 10 Noroeste 0 -- -- 33
2020-07-03 02:00:00 25.5 3 Oeste 12 Noroeste 0 -- -- 31
2020-07-03 01:00:00 26.9 6 Noroeste 18 Noroeste -- -- -- 28
2020-07-03 00:00:00 28.1 9 Noroeste 18 Noroeste 0 -- -- 24
2020-07-02 23:00:00 28.9 6 Noroeste 12 Oeste 0 -- -- 23
2020-07-02 22:00:00 30.4 7 Oeste 21 Oeste 0 -- -- 22
2020-07-02 21:00:00 32.8 11 Oeste 24 Oeste 0 -- -- 23
2020-07-02 20:00:00 34.9 8 Sudoeste 28 Oeste 0 -- -- 20
2020-07-02 19:00:00 35.3 10 Sudoeste 28 Oeste 0 -- -- 20
2020-07-02 18:00:00 34.8 8 Sudoeste 33 Oeste 0 -- -- 19
2020-07-02 17:00:00 34.8 9 Sudoeste 29 Oeste 0 -- -- 19
2020-07-02 16:00:00 34.2 8 Sudoeste 28 Oeste 0 -- -- 18
2020-07-02 15:00:00 33.3 11 Sudoeste 33 Oeste 0 -- -- 18
2020-07-02 14:00:00 31.6 12 Oeste 29 Oeste 0 -- -- 25
2020-07-02 13:00:00 30.4 6 Oeste 18 Oeste 0 -- -- 33
2020-07-02 12:00:00 27.8 6 Oeste 15 Noroeste 0 -- -- 41
2020-07-02 11:00:00 25.5 5 Sudoeste 14 Oeste 0 -- -- 49
2020-07-02 10:00:00 22.8 6 Oeste 18 Noroeste 0 -- -- 60
2020-07-02 09:00:00 21.5 5 Oeste 17 Oeste 0 -- -- 65
2020-07-02 08:00:00 20.8 4 Sudoeste 12 Sudoeste 0 -- -- 59
2020-07-02 07:00:00 21.3 3 Sudoeste 15 Sudoeste 0 -- -- 51
2020-07-02 06:00:00 22.3 5 Sudoeste 15 Oeste 0 -- -- 46
2020-07-02 05:00:00 23.4 8 Oeste 20 Oeste 0 -- -- 40
2020-07-02 04:00:00 24.4 6 Sudoeste 14 Oeste 0 -- -- 37
2020-07-02 03:00:00 25.6 5 Sudoeste 18 Oeste 0 -- -- 36
2020-07-02 02:00:00 26.7 5 Sudoeste 18 Oeste 0 -- -- 34
2020-07-02 01:00:00 27.7 6 Sudoeste 16 Oeste 0 -- -- 30
2020-07-02 00:00:00 28.9 8 Oeste 14 Oeste 0 -- -- 27
2020-07-01 23:00:00 30 6 Sudoeste 18 Oeste 0 -- -- 22
2020-07-01 22:00:00 31.1 7 Sudoeste 19 Oeste 0 -- -- 20
2020-07-01 21:00:00 33.3 10 Oeste 27 Oeste 0 -- -- 18
2020-07-01 20:00:00 35.2 11 Sudoeste 27 Oeste 0 -- -- 16
2020-07-01 19:00:00 35.6 10 Sudoeste 25 Oeste 0 -- -- 18
2020-07-01 18:00:00 35.3 9 Oeste 27 Noroeste 0 -- -- 19
2020-07-01 17:00:00 35 9 Oeste 26 Oeste 0 -- -- 20
2020-07-01 16:00:00 34.3 9 Oeste 23 Oeste 0 -- -- 19
2020-07-01 15:00:00 32.8 10 Oeste 23 Oeste 0 -- -- 28
2020-07-01 14:00:00 31.2 8 Oeste 20 Oeste -- -- -- 34
2020-07-01 13:00:00 29 5 Sudoeste 14 Oeste -- -- -- 40
2020-07-01 12:00:00 26.7 6 Oeste 18 Oeste 0 -- -- 46
2020-07-01 11:00:00 24.6 6 Oeste 14 Oeste 0 -- -- 51
2020-07-01 10:00:00 22.3 6 Oeste 17 Oeste 0 -- -- 57
2020-07-01 09:00:00 20.9 5 Oeste 12 Oeste 0 -- -- 67
2020-07-01 08:00:00 19.7 2 Sudoeste 13 Oeste 0 -- -- 70
2020-07-01 07:00:00 19.6 6 Sudoeste 18 Oeste 0 -- -- 71
2020-07-01 06:00:00 20.4 6 Sudoeste 26 Oeste 0 -- -- 64
2020-07-01 05:00:00 21.7 9 Oeste 23 Oeste 0 -- -- 58
2020-07-01 04:00:00 22.8 13 Oeste 36 Oeste 0 -- -- 54
2020-07-01 03:00:00 24.2 12 Sudoeste 28 Sudoeste 0 -- -- 56
2020-07-01 02:00:00 25.7 9 Sudoeste 24 Oeste -- -- -- 49
2020-07-01 01:00:00 27.4 9 Sudoeste 27 Oeste 0 -- -- 44
2020-07-01 00:00:00 28.9 7 Sudoeste 21 Noroeste 0 -- -- 36
2020-06-30 23:00:00 30.3 6 Sudoeste 22 Oeste 0 -- -- 30
2020-06-30 22:00:00 31.9 8 Oeste 26 Oeste 0 -- -- 26
2020-06-30 21:00:00 34.2 11 Oeste 28 Oeste 0 -- -- 24
2020-06-30 20:00:00 36.3 13 Oeste 29 Noroeste 0 -- -- 20
2020-06-30 19:00:00 37.2 12 Oeste 28 Noroeste 0 -- -- 19
2020-06-30 18:00:00 36.7 16 Oeste 35 Noroeste 0 -- -- 19
2020-06-30 17:00:00 36.4 12 Oeste 30 Oeste 0 -- -- 20
2020-06-30 16:00:00 36.4 14 Oeste 30 Oeste 0 -- -- 19
2020-06-30 15:00:00 35.7 9 Sudoeste 20 Oeste 0 -- -- 21
2020-06-30 14:00:00 34.4 5 Oeste 19 Oeste 0 -- -- 22
2020-06-30 13:00:00 32.5 5 Noroeste 17 Oeste 0 -- -- 24
2020-06-30 12:00:00 30.9 7 Noroeste 13 Noroeste 0 -- -- 27
2020-06-30 11:00:00 28.9 3 Oeste 10 Sudoeste 0 -- -- 30
2020-06-30 10:00:00 26.5 3 Sur 11 Sudeste 0 -- -- 34
2020-06-30 09:00:00 25 5 Sudeste 13 Este 0 -- -- 36
2020-06-30 08:00:00 24 2 Este 8 Sudeste 0 -- -- 37
2020-06-30 07:00:00 23.4 3 Sur 5 Sur 0 -- -- 36
2020-06-30 06:00:00 24.7 0 Calma 17 Oeste 0 -- -- 34
2020-06-30 05:00:00 26.4 8 Oeste 22 Oeste 0 -- -- 31
2020-06-30 04:00:00 27.5 10 Oeste 21 Oeste 0 -- -- 28
2020-06-30 03:00:00 27.1 5 Sudoeste 15 Oeste 0 -- -- 26
2020-06-30 02:00:00 28.7 0 Calma 14 Oeste 0 -- -- 23
2020-06-30 01:00:00 30.1 5 Sudoeste 15 Sudoeste 0 -- -- 23
2020-06-30 00:00:00 31.3 4 Sudoeste 11 Sudoeste 0 -- -- 24
2020-06-29 23:00:00 32 6 Sudoeste 13 Noroeste 0 -- -- 24
2020-06-29 22:00:00 33.9 6 Sudoeste 13 Oeste 0 -- -- 21
2020-06-29 21:00:00 36.7 6 Oeste 21 Oeste 0 -- -- 17
2020-06-29 20:00:00 38.3 9 Oeste 24 Oeste 0 -- -- 15
2020-06-29 19:00:00 38.6 11 Oeste 26 Oeste 0 -- -- 15
2020-06-29 18:00:00 38.2 9 Oeste 24 Sudoeste 0 -- -- 16
2020-06-29 17:00:00 38.3 9 Oeste 24 Oeste 0 -- -- 17
2020-06-29 16:00:00 37.3 6 Oeste 19 Oeste 0 -- -- 16
2020-06-29 15:00:00 36.1 5 Norte 15 Sur 0 -- -- 21
2020-06-29 14:00:00 35.1 5 Sur 14 Sur 0 -- -- 25
2020-06-29 13:00:00 33.5 4 Sur 11 Noroeste 0 -- -- 30
2020-06-29 12:00:00 31.7 3 Este 11 Sudoeste 0 -- -- 33
2020-06-29 11:00:00 28.5 4 Oeste 10 Oeste 0 -- -- 39
2020-06-29 10:00:00 26.3 4 Oeste 9 Oeste 0 -- -- 44
2020-06-29 09:00:00 25.1 3 Oeste 6 Oeste 0 -- -- 47
2020-06-29 08:00:00 23.6 0 Calma 7 Oeste 0 -- -- 47
2020-06-29 07:00:00 23.2 3 Noroeste 14 Oeste 0 -- -- 49
2020-06-29 06:00:00 24.9 5 Sudoeste 12 Oeste 0 -- -- 46
2020-06-29 05:00:00 25.4 5 Sudoeste 13 Oeste 0 -- -- 45
2020-06-29 04:00:00 26 4 Sudoeste 16 Oeste 0 -- -- 40
2020-06-29 03:00:00 27.1 5 Sur 15 Sur 0 -- -- 32
2020-06-29 02:00:00 27.6 3 Sudeste 5 Sur 0 -- -- 32
2020-06-29 01:00:00 28.6 2 Oeste 8 Sudoeste 0 -- -- 30
2020-06-29 00:00:00 29.5 2 Sudoeste 13 Oeste 0 -- -- 28
2020-06-28 23:00:00 31.3 6 Oeste 13 Oeste 0 -- -- 24
2020-06-28 22:00:00 32.3 4 Sudoeste 8 Oeste 0 -- -- 23
2020-06-28 21:00:00 35.8 5 Sudoeste 16 Oeste 0 -- -- 18
2020-06-28 20:00:00 37.3 7 Oeste 18 Oeste 0 -- -- 17
2020-06-28 19:00:00 37.4 6 Oeste 21 Oeste 0 -- -- 16
2020-06-28 18:00:00 36.3 4 Sudoeste 17 Oeste 0 -- -- 17
2020-06-28 17:00:00 35.6 8 Noroeste 20 Oeste 0 -- -- 20
2020-06-28 16:00:00 35.3 5 Oeste 17 Noroeste 0 -- -- 19
2020-06-28 15:00:00 34.7 5 Sudoeste 18 Oeste 0 -- -- 23
2020-06-28 14:00:00 33 4 Oeste 14 Noroeste 0 -- -- 26
2020-06-28 13:00:00 32 3 Sudoeste 11 Sudeste 0 -- -- 30
2020-06-28 12:00:00 30.3 4 Sudeste 13 Sudeste 0 -- -- 35
2020-06-28 11:00:00 27.3 4 Nordeste 10 Sudeste 0 -- -- 43
2020-06-28 10:00:00 24.5 4 Este 8 Nordeste 0 -- -- 52
2020-06-28 09:00:00 22.6 3 Este 8 Sudeste 0 -- -- 56
2020-06-28 08:00:00 21.6 3 Sudeste 7 Sudeste 0 -- -- 59
2020-06-28 07:00:00 20.9 0 Calma 5 Sur 0 -- -- 63
2020-06-28 06:00:00 21.9 0 Calma 5 Oeste 0 -- -- 59
2020-06-28 05:00:00 23 3 Sudoeste 8 Oeste 0 -- -- 53
2020-06-28 04:00:00 23.8 0 Calma 6 Sudoeste 0 -- -- 49
2020-06-28 03:00:00 24.6 2 Sudoeste 11 Sur 0 -- -- 44
2020-06-28 02:00:00 25.6 5 Sur 10 Sudeste 0 -- -- 37
2020-06-28 01:00:00 26.2 3 Sur 14 Oeste 0 -- -- 37
2020-06-28 00:00:00 27.1 5 Oeste 15 Oeste 0 -- -- 35
2020-06-27 23:00:00 29 6 Oeste 13 Oeste 0 -- -- 31
2020-06-27 22:00:00 30 4 Sudoeste 14 Oeste 0 -- -- 28
2020-06-27 21:00:00 32.2 8 Sudoeste 19 Oeste 0 -- -- 26
2020-06-27 20:00:00 34.1 5 Sudoeste 21 Oeste 0 -- -- 26
2020-06-27 19:00:00 33.9 6 Oeste 20 Oeste 0 -- -- 24
2020-06-27 18:00:00 32.7 7 Oeste 19 Oeste 0 -- -- 25
2020-06-27 17:00:00 32.9 7 Oeste 20 Oeste 0 -- -- 25
2020-06-27 16:00:00 31.5 5 Sur 17 Oeste 0 -- -- 25
2020-06-27 15:00:00 30.2 4 Nordeste 15 Sur 0 -- -- 27
2020-06-27 14:00:00 29.1 7 Oeste 15 Noroeste 0 -- -- 30
2020-06-27 13:00:00 27.7 6 Sudoeste 14 Oeste 0 -- -- 33
2020-06-27 12:00:00 25.5 5 Oeste 14 Oeste 0 -- -- 38
2020-06-27 11:00:00 23.2 6 Oeste 10 Oeste 0 -- -- 50
2020-06-27 10:00:00 20.8 4 Oeste 10 Noroeste 0 -- -- 57
2020-06-27 09:00:00 19 2 Oeste 5 Oeste 0 -- -- 62
2020-06-27 08:00:00 17.6 0 Calma 5 Oeste 0 -- -- 65
2020-06-27 07:00:00 17.8 3 Sudoeste 12 Oeste 0 -- -- 64
2020-06-27 06:00:00 18.6 4 Sudoeste 15 Oeste 0 -- -- 63
2020-06-27 05:00:00 19.5 3 Sudoeste 12 Sur 0 -- -- 60
2020-06-27 04:00:00 20.6 3 Sudoeste 12 Sur 0 -- -- 57
2020-06-27 03:00:00 21.7 5 Sudoeste 17 Oeste 0 -- -- 54
2020-06-27 02:00:00 22.9 3 Sudoeste 18 Oeste 0 -- -- 51
2020-06-27 01:00:00 24.1 9 Sudoeste 18 Sudoeste 0 -- -- 46
2020-06-27 00:00:00 25.2 5 Sudoeste 14 Sudoeste 0 -- -- 34
2020-06-26 23:00:00 26 6 Sudoeste 20 Oeste 0 -- -- 26
2020-06-26 22:00:00 26.9 8 Sudoeste 23 Oeste 0 -- -- 23
2020-06-26 21:00:00 28.8 13 Oeste 29 Oeste 0 -- -- 21
2020-06-26 20:00:00 30.7 12 Oeste 27 Oeste 0 -- -- 28
2020-06-26 19:00:00 31.1 11 Oeste 27 Oeste 0 -- -- 27
2020-06-26 18:00:00 30.6 12 Sudoeste 31 Oeste 0 -- -- 25
2020-06-26 17:00:00 30.7 12 Oeste 31 Oeste 0 -- -- 32
2020-06-26 16:00:00 30.2 11 Sudoeste 33 Noroeste 0 -- -- 35
2020-06-26 15:00:00 29.2 13 Oeste 27 Noroeste 0 -- -- 41
2020-06-26 14:00:00 28.3 9 Oeste 24 Oeste 0 -- -- 46
2020-06-26 13:00:00 26.7 6 Oeste 19 Noroeste 0 -- -- 53
2020-06-26 12:00:00 24.6 5 Oeste 17 Oeste 0 -- -- 59
2020-06-26 11:00:00 22.9 5 Sudoeste 12 Oeste 0 -- -- 66
2020-06-26 10:00:00 20.6 4 Oeste 13 Oeste 0 -- -- 74
2020-06-26 09:00:00 19.5 5 Oeste 11 Noroeste 0 -- -- 78
2020-06-26 08:00:00 18.9 3 Sudoeste 8 Oeste 0 -- -- 80
2020-06-26 07:00:00 18.8 5 Sudoeste 11 Oeste 0 -- -- 80
2020-06-26 06:00:00 19.2 4 Sudoeste 18 Oeste 0 -- -- 78
2020-06-26 05:00:00 20.1 6 Oeste 18 Oeste 0 -- -- 74
2020-06-26 04:00:00 21.3 5 Sudoeste 22 Sudoeste 0 -- -- 69
2020-06-26 03:00:00 22.6 9 Oeste 19 Oeste 0 -- -- 65
2020-06-26 02:00:00 23.6 8 Sudoeste 23 Oeste 0 -- -- 61
2020-06-26 01:00:00 24.6 9 Oeste 27 Noroeste 0 -- -- 56
2020-06-26 00:00:00 25.9 8 Sudoeste 25 Oeste 0 -- -- 50
2020-06-25 23:00:00 27.2 9 Sudoeste 23 Sudoeste 0 -- -- 45
2020-06-25 22:00:00 28.6 10 Sudoeste 24 Oeste 0 -- -- 40
2020-06-25 21:00:00 30.9 11 Sudoeste 33 Oeste 0 -- -- 32
2020-06-25 20:00:00 33.2 13 Oeste 31 Oeste 0 -- -- 29
2020-06-25 19:00:00 34.5 13 Oeste 30 Oeste 0 -- -- 25
2020-06-25 18:00:00 34.9 12 Oeste 27 Oeste 0 -- -- 22
2020-06-25 17:00:00 35.1 6 Oeste 20 Noroeste 0 -- -- 20
2020-06-25 16:00:00 34.2 8 Oeste 21 Oeste 0 -- -- 23
2020-06-25 15:00:00 33.1 8 Sudoeste 23 Oeste 0 -- -- 26
2020-06-25 14:00:00 31.4 5 Oeste 18 Oeste 0 -- -- 28
2020-06-25 13:00:00 30.7 6 Sudoeste 15 Sur 0 -- -- 31
2020-06-25 12:00:00 28.9 4 Noroeste 12 Noroeste 0 -- -- 37
2020-06-25 11:00:00 25.8 4 Noroeste 10 Noroeste 0 -- -- 46
2020-06-25 10:00:00 23.5 4 Oeste 9 Oeste 0 -- -- 54
2020-06-25 09:00:00 22.2 4 Sudoeste 12 Oeste 0 -- -- 58
2020-06-25 08:00:00 21.8 0 Calma 7 Oeste 0 -- -- 59
2020-06-25 07:00:00 21.9 2 Sudoeste 10 Sudoeste 0 -- -- 57
2020-06-25 06:00:00 22.6 2 Noroeste 10 Oeste 0 -- -- 55
2020-06-25 05:00:00 23.3 5 Oeste 19 Oeste 0 -- -- 51
2020-06-25 04:00:00 24 6 Oeste 18 Sudoeste 0 -- -- 50
2020-06-25 03:00:00 25.4 6 Sudoeste 13 Sur 0 -- -- 48
2020-06-25 02:00:00 27.2 4 Sudoeste 14 Sur 0 -- -- 38
2020-06-25 01:00:00 28.1 5 Sur 14 Sur 0 -- -- 30
2020-06-25 00:00:00 29.4 3 Sudoeste 8 Sudoeste 0 -- -- 27
2020-06-24 23:00:00 30.6 4 Sudoeste 14 Sudoeste 0 -- -- 26
2020-06-24 22:00:00 32.5 9 Oeste 18 Oeste 0 -- -- 25
2020-06-24 21:00:00 34.5 9 Oeste 23 Oeste 0 -- -- 22
2020-06-24 20:00:00 36.2 6 Sudoeste 21 Noroeste 0 -- -- 20
2020-06-24 19:00:00 37.4 8 Oeste 18 Noroeste 0 -- -- 17
2020-06-24 18:00:00 36.7 4 Noroeste 14 Oeste 0 -- -- 17
2020-06-24 17:00:00 36.7 7 Noroeste 25 Oeste 0 -- -- 17
2020-06-24 16:00:00 37.3 5 Norte 18 Oeste 0 -- -- 18
2020-06-24 15:00:00 36.1 3 Norte 17 Sudeste 0 -- -- 19
2020-06-24 14:00:00 34.8 4 Este 15 Sudeste 0 -- -- 20
2020-06-24 13:00:00 33.3 4 Este 14 Nordeste 0 -- -- 23
2020-06-24 12:00:00 31.3 5 Nordeste 16 Nordeste 0 -- -- 28
2020-06-24 11:00:00 28.8 4 Este 15 Sudeste 0 -- -- 33
2020-06-24 10:00:00 26.3 4 Este 13 Sudeste 0 -- -- 38
2020-06-24 09:00:00 24.2 2 Este 8 Sudeste 0 -- -- 41
2020-06-24 08:00:00 22.9 0 Calma 7 Oeste 0 -- -- 44
2020-06-24 07:00:00 22.9 5 Noroeste 14 Sur 0 -- -- 42
2020-06-24 06:00:00 23.8 8 Sur 14 Sur 0 -- -- 39
2020-06-24 05:00:00 25.4 2 Sudoeste 12 Noroeste 0 -- -- 34
2020-06-24 04:00:00 26.2 5 Noroeste 12 Oeste 0 -- -- 32
2020-06-24 03:00:00 26.8 3 Sur 10 Oeste 0 -- -- 32
2020-06-24 02:00:00 27.8 3 Oeste 18 Oeste 0 -- -- 29
2020-06-24 01:00:00 28.6 4 Sudoeste 19 Sudoeste 0 -- -- 28
2020-06-24 00:00:00 30 6 Sudoeste 20 Oeste 0 -- -- 25
2020-06-23 23:00:00 31.3 5 Sudoeste 16 Sur 0 -- -- 24
2020-06-23 22:00:00 33.7 0 Calma 23 Sudoeste 0 -- -- 22
2020-06-23 21:00:00 36.1 4 Sur 17 Sudeste 0 -- -- 20
2020-06-23 20:00:00 38.9 4 Oeste 12 Oeste 0 -- -- 16
2020-06-23 19:00:00 38.8 3 Sudeste 17 Sudeste 0 -- -- 15
2020-06-23 18:00:00 38.6 6 Este 15 Sur 0 -- -- 16
2020-06-23 17:00:00 38.4 6 Sur 21 Sudeste 0 -- -- 15
2020-06-23 16:00:00 38.1 4 Sudeste 20 Sudeste 0 -- -- 17
2020-06-23 15:00:00 36.6 8 Sudeste 21 Nordeste 0 -- -- 18
2020-06-23 14:00:00 35.6 7 Sudeste 17 Sudeste 0 -- -- 20
2020-06-23 13:00:00 33.9 5 Este 21 Sudeste 0 -- -- 22
2020-06-23 12:00:00 31.9 6 Este 27 Este 0 -- -- 25
2020-06-23 11:00:00 29.5 5 Este 21 Sudeste 0 -- -- 29
2020-06-23 10:00:00 26.9 5 Este 16 Sudeste 0 -- -- 34
2020-06-23 09:00:00 25.3 4 Este 11 Sudeste 0 -- -- 37
2020-06-23 08:00:00 23.7 3 Este 8 Sudeste 0 -- -- 40
2020-06-23 07:00:00 23.7 3 Este 17 Sudeste 0 -- -- 39
2020-06-23 06:00:00 24.4 5 Sudeste 14 Sudeste 0 -- -- 38
2020-06-23 05:00:00 25 4 Este 12 Sudeste 0 -- -- 37
2020-06-23 04:00:00 26.4 3 Este 14 Sudeste 0 -- -- 31
2020-06-23 03:00:00 26.7 4 Sudeste 8 Sudeste 0 -- -- 28
2020-06-23 02:00:00 27.3 0 Calma 17 Oeste 0 -- -- 27
2020-06-23 01:00:00 28.9 5 Sudoeste 13 Sudoeste 0 -- -- 24
2020-06-23 00:00:00 30.1 4 Sudoeste 14 Sur 0 -- -- 23
2020-06-22 23:00:00 31.5 4 Sudoeste 13 Sur 0 -- -- 22
2020-06-22 22:00:00 32.5 0 Calma 6 Sudoeste 0 -- -- 16
2020-06-22 21:00:00 36.4 4 Noroeste 12 Oeste 0 -- -- 14
2020-06-22 20:00:00 37.6 8 Noroeste 20 Oeste 0 -- -- 14
2020-06-22 19:00:00 38.5 8 Oeste 16 Noroeste 0 -- -- 14
2020-06-22 18:00:00 37.1 5 Nordeste 22 Noroeste 0 -- -- 14
2020-06-22 17:00:00 37.5 6 Oeste 17 Sudoeste 0 -- -- 13
2020-06-22 16:00:00 37.3 5 Sudoeste 21 Oeste 0 -- -- 14
2020-06-22 15:00:00 36.8 4 Sudoeste 13 Oeste 0 -- -- 15
2020-06-22 14:00:00 35.7 4 Norte 17 Noroeste 0 -- -- 16
2020-06-22 13:00:00 34.2 6 Noroeste 15 Oeste 0 -- -- 18
2020-06-22 12:00:00 32.5 4 Nordeste 10 Sudeste 0 -- -- 21
2020-06-22 11:00:00 30 4 Este 10 Sudeste 0 -- -- 25
2020-06-22 10:00:00 27.3 4 Este 14 Nordeste 0 -- -- 27
2020-06-22 09:00:00 25.1 3 Este 13 Sudeste 0 -- -- 28
2020-06-22 08:00:00 23.7 5 Sudeste 15 Sudeste 0 -- -- 28
2020-06-22 07:00:00 23.5 4 Este 7 Sudeste 0 -- -- 28
2020-06-22 06:00:00 23.4 3 Este 8 Nordeste 0 -- -- 30
2020-06-22 05:00:00 24.5 0 Calma 4 Sur 0 -- -- 26
2020-06-22 04:00:00 25.3 0 Calma 9 Sur 0 -- -- 26
2020-06-22 03:00:00 25.8 4 Sur 9 Sudeste 0 -- -- 25
2020-06-22 02:00:00 27.8 3 Este 9 Sudeste 0 -- -- 22
2020-06-22 01:00:00 28.4 2 Nordeste 10 Norte 0 -- -- 22
2020-06-22 00:00:00 29.5 6 Norte 12 Norte 0 -- -- 23
2020-06-21 23:00:00 29.2 3 Oeste 6 Oeste 0 -- -- 22
2020-06-21 22:00:00 30.6 0 Calma 8 Sudoeste 0 -- -- 20
2020-06-21 21:00:00 34.8 2 Sudoeste 14 Oeste 0 -- -- 16
2020-06-21 20:00:00 36.5 5 Oeste 13 Oeste 0 -- -- 15
2020-06-21 19:00:00 35.8 6 Sur 19 Oeste 0 -- -- 14
2020-06-21 18:00:00 35.4 3 Este 19 Oeste 0 -- -- 14
2020-06-21 17:00:00 35.1 5 Oeste 17 Noroeste 0 -- -- 15
2020-06-21 16:00:00 34.6 5 Sudoeste 17 Oeste 0 -- -- 18
2020-06-21 15:00:00 33.7 5 Norte 14 Sur 0 -- -- 20
2020-06-21 14:00:00 32.6 5 Sudoeste 16 Nordeste 0 -- -- 22
2020-06-21 13:00:00 31.8 4 Nordeste 15 Nordeste 0 -- -- 24
2020-06-21 12:00:00 29.4 2 Nordeste 9 Sudeste 0 -- -- 27
2020-06-21 11:00:00 26.5 3 Norte 9 Noroeste 0 -- -- 33
2020-06-21 10:00:00 23.5 3 Sudoeste 8 Sur 0 -- -- 38
2020-06-21 09:00:00 21.7 2 Oeste 5 Oeste 0 -- -- 42
2020-06-21 08:00:00 20.5 0 Calma 4 Sur 0 -- -- 44
2020-06-21 07:00:00 20.3 2 Sur 5 Sur 0 -- -- 42
2020-06-21 06:00:00 20.8 0 Calma 8 Oeste 0 -- -- 39
2020-06-21 05:00:00 22.4 4 Sudoeste 9 Sudoeste 0 -- -- 35
2020-06-21 04:00:00 23 0 Calma 8 Sur 0 -- -- 34
2020-06-21 03:00:00 24.1 5 Sur 10 Sudoeste 0 -- -- 31
2020-06-21 02:00:00 25.1 5 Sur 9 Sur 0 -- -- 29
2020-06-21 01:00:00 26.8 4 Noroeste 10 Oeste 0 -- -- 25
2020-06-21 00:00:00 26.8 4 Oeste 14 Oeste 0 -- -- 25
2020-06-20 23:00:00 28.7 6 Oeste 14 Oeste 0 -- -- 22
2020-06-20 22:00:00 29.9 6 Sudoeste 16 Oeste 0 -- -- 21
2020-06-20 21:00:00 32.4 6 Sudoeste 17 Oeste 0 -- -- 18
2020-06-20 20:00:00 34.3 5 Sudoeste 21 Oeste 0 -- -- 18
2020-06-20 19:00:00 34.6 9 Oeste 22 Oeste 0 -- -- 18
2020-06-20 18:00:00 33.8 5 Oeste 20 Oeste 0 -- -- 19
2020-06-20 17:00:00 33.8 8 Oeste 29 Oeste 0 -- -- 20
2020-06-20 16:00:00 33.1 10 Oeste 22 Oeste 0 -- -- 22
2020-06-20 15:00:00 31.5 5 Este 19 Noroeste 0 -- -- 25
2020-06-20 14:00:00 30.8 5 Noroeste 20 Noroeste 0 -- -- 27
2020-06-20 13:00:00 29.2 4 Sudoeste 12 Oeste 0 -- -- 30
2020-06-20 12:00:00 27.1 5 Noroeste 12 Oeste 0 -- -- 36
2020-06-20 11:00:00 25 4 Sudoeste 11 Oeste 0 -- -- 40
2020-06-20 10:00:00 22 0 Calma 7 Sudeste 0 -- -- 46
2020-06-20 09:00:00 20.5 3 Sudeste 6 Sudeste 0 -- -- 49
2020-06-20 08:00:00 18.9 3 Sudeste 6 Sudeste 0 -- -- 54
2020-06-20 07:00:00 17.9 0 Calma 5 Sudoeste 0 -- -- 57
2020-06-20 06:00:00 18.8 3 Sudoeste 6 Sudoeste 0 -- -- 54
2020-06-20 05:00:00 19.7 0 Calma 12 Oeste 0 -- -- 51
2020-06-20 04:00:00 20.5 4 Sudoeste 9 Sudoeste 0 -- -- 46
2020-06-20 03:00:00 21.3 3 Sudoeste 12 Oeste 0 -- -- 43
2020-06-20 02:00:00 22.5 4 Sudoeste 13 Sudeste 0 -- -- 38
2020-06-20 01:00:00 23.6 4 Sudoeste 15 Oeste 0 -- -- 35
2020-06-20 00:00:00 24.6 7 Oeste 21 Oeste 0 -- -- 33
2020-06-19 23:00:00 25.6 9 Oeste 21 Oeste 0 -- -- 31
2020-06-19 22:00:00 26.9 7 Sudoeste 18 Oeste 0 -- -- 28
2020-06-19 21:00:00 29.2 7 Oeste 20 Oeste 0 -- -- 21
2020-06-19 20:00:00 31.2 8 Sudoeste 27 Oeste 0 -- -- 22
2020-06-19 19:00:00 31.4 7 Oeste 22 Oeste 0 -- -- 19
2020-06-19 18:00:00 30.6 6 Oeste 21 Oeste 0 -- -- 24
2020-06-19 17:00:00 30.4 5 Oeste 22 Oeste 0 -- -- 23
2020-06-19 16:00:00 29.5 5 Oeste 23 Oeste 0 -- -- 26
2020-06-19 15:00:00 28.3 8 Oeste 22 Oeste 0 -- -- 31
2020-06-19 14:00:00 26.7 5 Sur 18 Oeste 0 -- -- 36
2020-06-19 13:00:00 24.6 9 Oeste 18 Oeste 0 -- -- 43
2020-06-19 12:00:00 22.8 8 Oeste 15 Oeste 0 -- -- 48
2020-06-19 11:00:00 20.9 6 Oeste 17 Noroeste 0 -- -- 55
2020-06-19 10:00:00 18.3 7 Oeste 15 Noroeste 0 -- -- 63
2020-06-19 09:00:00 16.8 5 Oeste 16 Oeste 0 -- -- 66
2020-06-19 08:00:00 15.8 5 Sudoeste 12 Oeste 0 -- -- 64
2020-06-19 07:00:00 15.7 5 Oeste 12 Oeste 0 -- -- 63
2020-06-19 06:00:00 16.3 5 Sudoeste 14 Oeste 0 -- -- 60
2020-06-19 05:00:00 16.9 6 Sudoeste 14 Sudoeste 0 -- -- 58
2020-06-19 04:00:00 17.6 6 Sudoeste 22 Oeste 0 -- -- 55
2020-06-19 03:00:00 18.8 8 Sudoeste 26 Noroeste 0 -- -- 53
2020-06-19 02:00:00 20.3 12 Sudoeste 22 Sudoeste 0 -- -- 44
2020-06-19 01:00:00 21.8 12 Sudoeste 26 Oeste 0 -- -- 41
2020-06-19 00:00:00 23.3 10 Sudoeste 36 Oeste 0 -- -- 37
2020-06-18 23:00:00 24.9 8 Oeste 25 Oeste 0 -- -- 27
2020-06-18 22:00:00 26.2 7 Oeste 25 Oeste 0 -- -- 29
2020-06-18 21:00:00 28.4 9 Sudoeste 26 Oeste 0 -- -- 24
2020-06-18 20:00:00 30.3 11 Oeste 22 Oeste 0 -- -- 21
2020-06-18 19:00:00 30.8 9 Sudoeste 29 Oeste 0 -- -- 21
2020-06-18 18:00:00 30.3 10 Sudoeste 27 Oeste 0 -- -- 22
2020-06-18 17:00:00 30.6 9 Sudoeste 23 Oeste 0 -- -- 21
2020-06-18 16:00:00 30.1 9 Oeste 22 Oeste 0 -- -- 21
2020-06-18 15:00:00 29 10 Oeste 29 Oeste 0 -- -- 25
2020-06-18 14:00:00 27.8 9 Oeste 22 Oeste 0 -- -- 28
2020-06-18 13:00:00 26.9 7 Oeste 18 Oeste 0 -- -- 29
2020-06-18 12:00:00 25.3 4 Oeste 12 Noroeste 0 -- -- 32
2020-06-18 11:00:00 23 3 Sudoeste 9 Oeste 0 -- -- 39
2020-06-18 10:00:00 20.1 3 Sudeste 8 Sudeste 0 -- -- 48
2020-06-18 09:00:00 18.3 2 Sudeste 7 Sudeste 0 -- -- 54
2020-06-18 08:00:00 17.1 0 Calma 5 Oeste 0 -- -- 56
2020-06-18 07:00:00 16.3 0 Calma 7 Oeste 0 -- -- 56
2020-06-18 06:00:00 16.7 2 Sur 4 Sur 0 -- -- 53
2020-06-18 05:00:00 17.5 2 Sur 5 Sur 0 -- -- 49
2020-06-18 04:00:00 18.4 0 Calma 6 Sur 0 -- -- 41
2020-06-18 03:00:00 19.5 4 Oeste 9 Oeste 0 -- -- 35
2020-06-18 02:00:00 21.1 4 Oeste 10 Oeste 0 -- -- 33
2020-06-18 01:00:00 22 4 Noroeste 11 Norte 0 -- -- 31
2020-06-18 00:00:00 22 3 Oeste 8 Oeste 0 -- -- 35
2020-06-17 23:00:00 23.7 4 Oeste 13 Oeste 0 -- -- 34
2020-06-17 22:00:00 25.1 4 Sudoeste 23 Oeste 0 -- -- 32
2020-06-17 21:00:00 27.4 8 Sudoeste 19 Oeste 0 -- -- 29
2020-06-17 20:00:00 28.9 6 Sudoeste 26 Oeste 0 -- -- 25
2020-06-17 19:00:00 28.9 8 Sudoeste 28 Oeste 0 -- -- 25
2020-06-17 18:00:00 28.2 11 Oeste 34 Oeste 0 -- -- 27
2020-06-17 17:00:00 28.2 9 Sudoeste 31 Oeste 0 -- -- 26
2020-06-17 16:00:00 27.6 13 Oeste 34 Noroeste 0 -- -- 29
2020-06-17 15:00:00 26.9 9 Sudoeste 24 Noroeste 0 -- -- 35
2020-06-17 14:00:00 25.7 11 Oeste 28 Oeste 0 -- -- 40
2020-06-17 13:00:00 24.1 11 Oeste 27 Oeste 0 -- -- 43
2020-06-17 12:00:00 22.9 10 Sudoeste 25 Oeste 0 -- -- 48
2020-06-17 11:00:00 21.5 8 Sudoeste 22 Oeste 0 -- -- 52
2020-06-17 10:00:00 19.2 5 Oeste 13 Oeste 0 -- -- 63
2020-06-17 09:00:00 17.8 6 Oeste 15 Oeste 0 -- -- 72
2020-06-17 08:00:00 16.7 3 Sudoeste 14 Oeste 0 -- -- 79
2020-06-17 07:00:00 16.5 2 Sur 9 Sudoeste 0 -- -- 79
2020-06-17 06:00:00 16.9 3 Sur 13 Sur 0 -- -- 79
2020-06-17 05:00:00 17.8 2 Sur 14 Sudoeste 0 -- -- 74
2020-06-17 04:00:00 18.6 8 Oeste 20 Sudoeste 0 -- -- 71
2020-06-17 03:00:00 19.6 5 Sudoeste 16 Oeste 0 -- -- 65
2020-06-17 02:00:00 20.6 5 Sudoeste 11 Oeste 0 -- -- 52
2020-06-17 01:00:00 21.2 4 Oeste 15 Oeste 0 -- -- 48
2020-06-17 00:00:00 22.3 8 Oeste 17 Oeste 0 -- -- 46
2020-06-16 23:00:00 23.2 8 Oeste 26 Noroeste 0 -- -- 43
2020-06-16 22:00:00 24.4 10 Noroeste 26 Oeste 0 -- -- 40
2020-06-16 21:00:00 25.6 13 Oeste 31 Oeste 0 -- -- 37
2020-06-16 20:00:00 26.6 13 Oeste 32 Oeste 0 -- -- 34
2020-06-16 19:00:00 27.8 9 Oeste 33 Oeste 0 -- -- 31
2020-06-16 18:00:00 27.4 8 Sudoeste 32 Oeste 0 -- -- 33
2020-06-16 17:00:00 27.2 11 Oeste 30 Oeste 0 -- -- 32
2020-06-16 16:00:00 27.9 9 Sudoeste 36 Oeste 0 -- -- 32
2020-06-16 15:00:00 27.1 13 Oeste 27 Oeste 0 -- -- 35
2020-06-16 14:00:00 25.9 8 Sudoeste 22 Oeste 0 -- -- 36
2020-06-16 13:00:00 24.4 8 Sudoeste 17 Oeste 0 -- -- 39
2020-06-16 12:00:00 22.8 6 Oeste 17 Oeste 0 -- -- 44
2020-06-16 11:00:00 21 6 Oeste 15 Oeste 0 -- -- 49
2020-06-16 10:00:00 18.4 5 Sudoeste 14 Oeste 0 -- -- 58
2020-06-16 09:00:00 16.8 5 Sudoeste 11 Oeste 0 -- -- 64
2020-06-16 08:00:00 15.9 5 Sudoeste 12 Oeste 0 -- -- 65
2020-06-16 07:00:00 16.2 4 Sudoeste 19 Oeste 0 -- -- 64
2020-06-16 06:00:00 16.8 7 Oeste 16 Oeste 0 -- -- 60
2020-06-16 05:00:00 17.4 7 Oeste 16 Oeste 0 -- -- 58
2020-06-16 04:00:00 18.1 6 Sudoeste 23 Oeste 0 -- -- 56
2020-06-16 03:00:00 19.1 8 Sudoeste 19 Oeste 0 -- -- 53
2020-06-16 02:00:00 20.2 6 Sudoeste 21 Oeste 0 -- -- 49
2020-06-16 01:00:00 21.5 8 Sudoeste 20 Sudoeste 0 -- -- 43
2020-06-16 00:00:00 23.1 7 Sudoeste 21 Oeste 0 -- -- 38
2020-06-15 23:00:00 24 8 Oeste 19 Oeste 0 -- -- 35
2020-06-15 22:00:00 24.9 8 Sudoeste 24 Oeste 0 -- -- 33
2020-06-15 21:00:00 26.8 9 Sudoeste 23 Oeste 0 -- -- 29
2020-06-15 20:00:00 28.6 6 Sudoeste 24 Oeste 0 -- -- 27
2020-06-15 19:00:00 29.2 10 Sudoeste 28 Oeste 0 -- -- 25
2020-06-15 18:00:00 28.6 10 Sudoeste 28 Oeste 0 -- -- 26
2020-06-15 17:00:00 28.7 9 Sudoeste 28 Oeste 0 -- -- 25
2020-06-15 16:00:00 27.6 10 Oeste 28 Oeste 0 -- -- 27
2020-06-15 15:00:00 26.3 9 Oeste 24 Oeste 0 -- -- 29
2020-06-15 14:00:00 25.4 8 Oeste 21 Oeste 0 -- -- 33
2020-06-15 13:00:00 24 5 Oeste 13 Sur 0 -- -- 39
2020-06-15 12:00:00 22.5 4 Este 10 Sudeste 0 -- -- 45
2020-06-15 11:00:00 19.8 4 Este 10 Sudeste 0 -- -- 54
2020-06-15 10:00:00 16.7 3 Oeste 10 Noroeste 0 -- -- 67
2020-06-15 09:00:00 15.3 3 Oeste 10 Oeste 0 -- -- 73
2020-06-15 08:00:00 14.4 5 Oeste 12 Oeste 0 -- -- 75
2020-06-15 07:00:00 14.1 2 Sur 9 Oeste 0 -- -- 72
2020-06-15 06:00:00 14.8 3 Sudoeste 13 Oeste 0 -- -- 67
2020-06-15 05:00:00 15.4 7 Oeste 19 Oeste 0 -- -- 64
2020-06-15 04:00:00 15.9 7 Sudoeste 15 Oeste 0 -- -- 61
2020-06-15 03:00:00 16.8 6 Sudoeste 25 Oeste 0 -- -- 58
2020-06-15 02:00:00 17.9 11 Oeste 29 Oeste 0 -- -- 55
2020-06-15 01:00:00 19.1 9 Sudoeste 35 Oeste 0 -- -- 50
2020-06-15 00:00:00 20.5 15 Oeste 35 Oeste 0 -- -- 46
2020-06-14 23:00:00 22.1 15 Sudoeste 37 Oeste 0 -- -- 43
2020-06-14 22:00:00 24.1 10 Oeste 27 Oeste 0 -- -- 35
2020-06-14 21:00:00 26.4 10 Oeste 25 Oeste 0 -- -- 30
2020-06-14 20:00:00 27.8 11 Sudoeste 24 Sudoeste 0 -- -- 27
2020-06-14 19:00:00 28.7 10 Sudoeste 27 Oeste 0 -- -- 27
2020-06-14 18:00:00 27.8 9 Oeste 21 Oeste 0 -- -- 28
2020-06-14 17:00:00 27.7 8 Oeste 21 Oeste 0 -- -- 29
2020-06-14 16:00:00 26.7 5 Sudoeste 19 Oeste 0 -- -- 31
2020-06-14 15:00:00 25.7 8 Noroeste 21 Oeste 0 -- -- 31
2020-06-14 14:00:00 24.3 7 Noroeste 20 Noroeste 0 -- -- 34
2020-06-14 13:00:00 23.1 5 Noroeste 13 Oeste 0 -- -- 37
2020-06-14 12:00:00 21.6 3 Noroeste 13 Oeste 0 -- -- 43
2020-06-14 11:00:00 19.4 4 Oeste 14 Oeste 0 -- -- 52
2020-06-14 10:00:00 17.2 3 Oeste 10 Oeste 0 -- -- 61
2020-06-14 09:00:00 16.1 3 Oeste 7 Oeste 0 -- -- 63
2020-06-14 08:00:00 15.3 0 Calma 11 Oeste 0 -- -- 64
2020-06-14 07:00:00 15.2 6 Oeste 12 Oeste 0 -- -- 61
2020-06-14 06:00:00 15.8 2 Sudoeste 7 Sudoeste 0 -- -- 57
2020-06-14 05:00:00 16.1 2 Sudoeste 11 Sudoeste 0 -- -- 55
2020-06-14 04:00:00 16.8 0 Calma 8 Sur 0 -- -- 50
2020-06-14 03:00:00 17.3 3 Sur 6 Sur 0 -- -- 47
2020-06-14 02:00:00 17.6 0 Calma 6 Noroeste 0 -- -- 47
2020-06-14 01:00:00 17.9 0 Calma 5 Oeste 0 -- -- 45
2020-06-14 00:00:00 18.6 0 Calma 5 Sudoeste 0 -- -- 43
2020-06-13 23:00:00 19.3 2 Sudoeste 8 Sudoeste 0 -- -- 41
2020-06-13 22:00:00 20.8 3 Sudoeste 12 Oeste 0 -- -- 38
2020-06-13 21:00:00 22.8 8 Sudoeste 19 Sudoeste 0 -- -- 34
2020-06-13 20:00:00 23.7 6 Sudoeste 26 Oeste 0 -- -- 33
2020-06-13 19:00:00 24.5 10 Oeste 26 Oeste 0 -- -- 32
2020-06-13 18:00:00 24.3 10 Oeste 23 Oeste 0 -- -- 32
2020-06-13 17:00:00 24 10 Oeste 23 Oeste 0 -- -- 34
2020-06-13 16:00:00 22.8 7 Noroeste 29 Oeste 0 -- -- 36
2020-06-13 15:00:00 21.6 8 Oeste 25 Oeste 0 -- -- 39
2020-06-13 14:00:00 21.3 5 Sudoeste 22 Oeste 0 -- -- 42
2020-06-13 13:00:00 20.1 9 Oeste 18 Oeste 0 -- -- 44
2020-06-13 12:00:00 18.3 5 Sudoeste 17 Oeste 0 -- -- 52
2020-06-13 11:00:00 16.8 6 Oeste 16 Noroeste 0 -- -- 60
2020-06-13 10:00:00 15 7 Noroeste 16 Noroeste 0 -- -- 71
2020-06-13 09:00:00 13.7 6 Oeste 13 Oeste 0 -- -- 82
2020-06-13 08:00:00 12.7 3 Oeste 9 Oeste 0 -- -- 85
2020-06-13 07:00:00 12.6 3 Oeste 10 Oeste 0 -- -- 84
2020-06-13 06:00:00 12.9 2 Sudoeste 12 Sudoeste 0 -- -- 82
2020-06-13 05:00:00 13.4 5 Sudoeste 19 Oeste 0 -- -- 79
2020-06-13 04:00:00 14.2 8 Sudoeste 17 Oeste 0 -- -- 74
2020-06-13 03:00:00 14.8 9 Oeste 23 Oeste 0 -- -- 69
2020-06-13 02:00:00 15.3 12 Oeste 34 Oeste 0 -- -- 64
2020-06-13 01:00:00 16 13 Sudoeste 36 Sudoeste 0 -- -- 61
2020-06-13 00:00:00 17.1 14 Sudoeste 36 Oeste 0 -- -- 55
2020-06-12 23:00:00 18 8 Sudoeste 17 Oeste 0 -- -- 43
2020-06-12 22:00:00 18.8 8 Sudoeste 26 Oeste 0 -- -- 41
2020-06-12 21:00:00 20.5 9 Sudoeste 26 Oeste 0 -- -- 37
2020-06-12 20:00:00 22.2 13 Sudoeste 29 Sudoeste 0 -- -- 34
2020-06-12 19:00:00 23.2 11 Sudoeste 32 Oeste 0 -- -- 29
2020-06-12 18:00:00 22.2 9 Sudoeste 28 Oeste 0 -- -- 31
2020-06-12 17:00:00 22 10 Sudoeste 28 Oeste 0 -- -- 33
2020-06-12 16:00:00 21.2 10 Sudoeste 34 Oeste 0 -- -- 36
2020-06-12 15:00:00 19.8 12 Oeste 31 Oeste 0 -- -- 40
2020-06-12 14:00:00 18.9 10 Sudoeste 30 Oeste 0 -- -- 44
2020-06-12 13:00:00 18 9 Sudoeste 32 Sudoeste 0 -- -- 48
2020-06-12 12:00:00 16.1 11 Oeste 27 Oeste 0 -- -- 52
2020-06-12 11:00:00 15.2 10 Oeste 26 Oeste 0 -- -- 57
2020-06-12 10:00:00 13.8 6 Oeste 17 Oeste 0 -- -- 70
2020-06-12 09:00:00 13.1 8 Oeste 21 Oeste 0 -- -- 81
2020-06-12 08:00:00 12.8 7 Oeste 19 Oeste 0 -- -- 85
2020-06-12 07:00:00 13.4 8 Noroeste 26 Oeste 0.4 -- -- 89
2020-06-12 06:00:00 14.9 11 Oeste 33 Noroeste 0 -- -- 81
2020-06-12 05:00:00 15.7 12 Oeste 35 Oeste 0 -- -- 80
2020-06-12 04:00:00 16 15 Sudoeste 32 Sudoeste 0 -- -- 80
2020-06-12 03:00:00 16.3 14 Sudoeste 33 Sudoeste 0 -- -- 78
2020-06-12 02:00:00 16.4 14 Sudoeste 38 Noroeste 0 -- -- 78
2020-06-12 01:00:00 17 16 Sudoeste 40 Oeste 0 -- -- 73
2020-06-12 00:00:00 17.8 17 Sudoeste 39 Sudoeste 0 -- -- 66
2020-06-11 23:00:00 18.9 15 Sudoeste 49 Oeste 0 -- -- 61
2020-06-11 22:00:00 19.7 20 Sudoeste 46 Oeste 0 -- -- 56
2020-06-11 21:00:00 20.9 23 Oeste 46 Oeste 0 -- -- 51
2020-06-11 20:00:00 22.4 18 Oeste 39 Sudoeste 0 -- -- 39
2020-06-11 19:00:00 24.9 17 Sudoeste 41 Oeste 0 -- -- 34
2020-06-11 18:00:00 24.8 15 Sudoeste 39 Sudoeste 0 -- -- 35
2020-06-11 17:00:00 24.9 14 Sudoeste 39 Oeste 0 -- -- 33
2020-06-11 16:00:00 24.4 19 Oeste 39 Oeste 0 -- -- 33
2020-06-11 15:00:00 23.9 15 Oeste 36 Oeste 0 -- -- 36
2020-06-11 14:00:00 22.7 14 Sudoeste 37 Oeste 0 -- -- 41
2020-06-11 13:00:00 21.4 16 Oeste 46 Oeste 0 -- -- 49
2020-06-11 12:00:00 20.5 14 Oeste 35 Sudoeste 0 -- -- 53
2020-06-11 11:00:00 18.9 11 Oeste 26 Oeste 0 -- -- 57
2020-06-11 10:00:00 16.9 10 Oeste 25 Oeste 0 -- -- 63
2020-06-11 09:00:00 15.5 10 Sudoeste 21 Oeste 0 -- -- 67
2020-06-11 08:00:00 14.8 6 Sudoeste 18 Oeste 0 -- -- 67
2020-06-11 07:00:00 15 7 Oeste 19 Oeste 0 -- -- 64
2020-06-11 06:00:00 15.5 8 Sudoeste 22 Oeste 0 -- -- 61
2020-06-11 05:00:00 16.3 9 Oeste 23 Oeste 0 -- -- 59
2020-06-11 04:00:00 17.2 9 Sudoeste 24 Oeste 0 -- -- 54
2020-06-11 03:00:00 18.1 9 Sudoeste 25 Oeste 0 -- -- 52
2020-06-11 02:00:00 19.3 10 Sudoeste 32 Oeste 0 -- -- 50
2020-06-11 01:00:00 20.7 12 Sudoeste 32 Oeste 0 -- -- 48
2020-06-11 00:00:00 22.3 15 Oeste 38 Oeste 0 -- -- 44